AOJ74J LSZR-LOWW
Flight info
| Callsign | AOJ74J |
|---|---|
| Flight time | 0h 47m |
| Altitude | 33000 |
| Route | BEMKI L607 XEBIX N871 BADVI L725 INPUL DCT NEMAL NEMAL2W |
| Aircraft | C750/M-SBDE3FGHRWXY/S |
Departure
| Time | 2026-05-07 17:29 |
|---|---|
| Airport | Sankt Gallen Altenrhein Airport (LSZR) |
Arrival
| Time | 2026-05-07 18:17 |
|---|---|
| Airport | Vienna International Airport (LOWW) |
| Time | Latitude | Longitude | Altitude | Speed | Heading |
|---|---|---|---|---|---|
| 2026-05-07 17:19 | 47.48722 | 9.55254 | 1310 ft | 0 kts | 6° |
| 2026-05-07 17:24 | 47.48726 | 9.55255 | 1310 ft | 2 kts | 6° |
| 2026-05-07 17:24 | 47.48739 | 9.55274 | 1310 ft | 4 kts | 79° |
| 2026-05-07 17:24 | 47.48736 | 9.55324 | 1309 ft | 6 kts | 97° |
| 2026-05-07 17:24 | 47.48706 | 9.55347 | 1310 ft | 7 kts | 188° |
| 2026-05-07 17:25 | 47.48634 | 9.55332 | 1312 ft | 13 kts | 187° |
| 2026-05-07 17:25 | 47.48584 | 9.55342 | 1314 ft | 5 kts | 127° |
| 2026-05-07 17:25 | 47.48568 | 9.55462 | 1315 ft | 23 kts | 98° |
| 2026-05-07 17:25 | 47.48537 | 9.55764 | 1316 ft | 30 kts | 98° |
| 2026-05-07 17:26 | 47.48504 | 9.56080 | 1311 ft | 34 kts | 98° |
| 2026-05-07 17:26 | 47.48468 | 9.56424 | 1308 ft | 33 kts | 99° |
| 2026-05-07 17:26 | 47.48434 | 9.56752 | 1307 ft | 31 kts | 98° |
| 2026-05-07 17:26 | 47.48413 | 9.56958 | 1310 ft | 12 kts | 98° |
| 2026-05-07 17:27 | 47.48419 | 9.57029 | 1312 ft | 6 kts | 71° |
| 2026-05-07 17:27 | 47.48407 | 9.57055 | 1313 ft | 2 kts | 206° |
| 2026-05-07 17:27 | 47.48411 | 9.57019 | 1312 ft | 4 kts | 268° |
| 2026-05-07 17:27 | 47.48412 | 9.56965 | 1310 ft | 6 kts | 277° |
| 2026-05-07 17:28 | 47.48461 | 9.56493 | 1307 ft | 104 kts | 278° |
| 2026-05-07 17:28 | 47.48606 | 9.55051 | 1370 ft | 164 kts | 280° |
| 2026-05-07 17:28 | 47.48760 | 9.53523 | 1508 ft | 135 kts | 280° |
| 2026-05-07 17:28 | 47.48905 | 9.52076 | 1550 ft | 159 kts | 280° |
| 2026-05-07 17:29 | 47.49099 | 9.50264 | 1824 ft | 193 kts | 281° |
| 2026-05-07 17:29 | 47.49467 | 9.48428 | 2862 ft | 179 kts | 297° |
| 2026-05-07 17:29 | 47.50302 | 9.47094 | 3709 ft | 181 kts | 321° |
| 2026-05-07 17:29 | 47.51436 | 9.46242 | 4421 ft | 189 kts | 347° |
| 2026-05-07 17:30 | 47.52745 | 9.46396 | 5233 ft | 193 kts | 17° |
| 2026-05-07 17:30 | 47.53842 | 9.47553 | 5976 ft | 199 kts | 49° |
| 2026-05-07 17:30 | 47.54605 | 9.49266 | 6787 ft | 200 kts | 57° |
| 2026-05-07 17:30 | 47.55362 | 9.51026 | 7573 ft | 205 kts | 56° |
| 2026-05-07 17:31 | 47.56160 | 9.52885 | 8200 ft | 226 kts | 56° |
| 2026-05-07 17:31 | 47.57052 | 9.54970 | 8782 ft | 252 kts | 56° |
| 2026-05-07 17:31 | 47.58035 | 9.57273 | 9333 ft | 277 kts | 57° |
| 2026-05-07 17:31 | 47.59112 | 9.59796 | 9849 ft | 300 kts | 57° |
| 2026-05-07 17:32 | 47.60224 | 9.62474 | 10476 ft | 314 kts | 60° |
| 2026-05-07 17:32 | 47.61021 | 9.65643 | 10612 ft | 343 kts | 73° |
| 2026-05-07 17:32 | 47.61656 | 9.69194 | 10816 ft | 367 kts | 76° |
| 2026-05-07 17:32 | 47.62091 | 9.71617 | 11330 ft | 368 kts | 74° |
| 2026-05-07 17:33 | 47.63089 | 9.76493 | 12365 ft | 373 kts | 72° |
| 2026-05-07 17:33 | 47.63763 | 9.80226 | 12988 ft | 379 kts | 83° |
| 2026-05-07 17:33 | 47.63538 | 9.84105 | 13687 ft | 379 kts | 104° |
| 2026-05-07 17:33 | 47.62811 | 9.87864 | 14394 ft | 381 kts | 109° |
| 2026-05-07 17:34 | 47.62041 | 9.91638 | 15034 ft | 385 kts | 107° |
| 2026-05-07 17:34 | 47.61435 | 9.95515 | 15714 ft | 388 kts | 102° |
| 2026-05-07 17:34 | 47.60913 | 9.99455 | 16391 ft | 391 kts | 102° |
| 2026-05-07 17:34 | 47.60301 | 10.03394 | 17096 ft | 394 kts | 105° |
| 2026-05-07 17:35 | 47.59624 | 10.07345 | 17816 ft | 398 kts | 105° |
| 2026-05-07 17:35 | 47.58980 | 10.11346 | 18527 ft | 402 kts | 103° |
| 2026-05-07 17:35 | 47.58364 | 10.15401 | 19156 ft | 406 kts | 103° |
| 2026-05-07 17:35 | 47.57722 | 10.19494 | 19824 ft | 409 kts | 104° |
| 2026-05-07 17:36 | 47.57052 | 10.23605 | 20474 ft | 413 kts | 104° |
| 2026-05-07 17:36 | 47.56174 | 10.27674 | 21025 ft | 418 kts | 116° |
| 2026-05-07 17:36 | 47.54657 | 10.31263 | 21696 ft | 418 kts | 129° |
| 2026-05-07 17:36 | 47.52573 | 10.34259 | 22303 ft | 419 kts | 144° |
| 2026-05-07 17:37 | 47.50220 | 10.36842 | 22930 ft | 423 kts | 146° |
| 2026-05-07 17:37 | 47.47868 | 10.39473 | 23483 ft | 428 kts | 142° |
| 2026-05-07 17:37 | 47.45843 | 10.42753 | 23950 ft | 435 kts | 128° |
| 2026-05-07 17:37 | 47.44286 | 10.46600 | 24506 ft | 440 kts | 116° |
| 2026-05-07 17:38 | 47.43282 | 10.50885 | 24996 ft | 445 kts | 104° |
| 2026-05-07 17:38 | 47.42895 | 10.55439 | 25496 ft | 450 kts | 91° |
| 2026-05-07 17:38 | 47.43164 | 10.60050 | 25998 ft | 453 kts | 79° |
| 2026-05-07 17:38 | 47.44056 | 10.64517 | 26495 ft | 455 kts | 69° |
| 2026-05-07 17:39 | 47.45143 | 10.68925 | 27015 ft | 459 kts | 69° |
| 2026-05-07 17:39 | 47.46238 | 10.73375 | 27526 ft | 463 kts | 69° |
| 2026-05-07 17:39 | 47.47282 | 10.77896 | 28001 ft | 467 kts | 72° |
| 2026-05-07 17:39 | 47.48189 | 10.82531 | 28495 ft | 472 kts | 73° |
| 2026-05-07 17:40 | 47.49075 | 10.87216 | 29013 ft | 475 kts | 73° |
| 2026-05-07 17:40 | 47.49995 | 10.91921 | 29572 ft | 477 kts | 73° |
| 2026-05-07 17:40 | 47.50943 | 10.96644 | 30052 ft | 481 kts | 72° |
| 2026-05-07 17:40 | 47.51881 | 11.01417 | 30462 ft | 485 kts | 73° |
| 2026-05-07 17:41 | 47.52806 | 11.06243 | 30796 ft | 490 kts | 73° |
| 2026-05-07 17:41 | 47.53742 | 11.11103 | 31257 ft | 491 kts | 73° |
| 2026-05-07 17:41 | 47.54690 | 11.15959 | 31837 ft | 491 kts | 73° |
| 2026-05-07 17:41 | 47.55636 | 11.20826 | 32362 ft | 493 kts | 73° |
| 2026-05-07 17:42 | 47.56571 | 11.25697 | 32885 ft | 492 kts | 73° |
| 2026-05-07 17:42 | 47.57515 | 11.30632 | 32995 ft | 502 kts | 73° |
| 2026-05-07 17:42 | 47.58479 | 11.35650 | 32993 ft | 515 kts | 73° |
| 2026-05-07 17:42 | 47.59467 | 11.40801 | 33002 ft | 525 kts | 73° |
| 2026-05-07 17:43 | 47.60469 | 11.46064 | 33006 ft | 536 kts | 73° |
| 2026-05-07 17:43 | 47.61487 | 11.51431 | 33005 ft | 546 kts | 73° |
| 2026-05-07 17:43 | 47.63564 | 11.62381 | 33019 ft | 554 kts | 73° |
| 2026-05-07 17:44 | 47.65612 | 11.73289 | 33002 ft | 553 kts | 74° |
| 2026-05-07 17:44 | 47.67677 | 11.84311 | 33000 ft | 555 kts | 74° |
| 2026-05-07 17:45 | 47.69732 | 11.95371 | 32996 ft | 556 kts | 74° |
| 2026-05-07 17:45 | 47.71779 | 12.06446 | 33005 ft | 556 kts | 74° |
| 2026-05-07 17:46 | 47.73818 | 12.17540 | 33013 ft | 557 kts | 74° |
| 2026-05-07 17:46 | 47.75845 | 12.28641 | 33015 ft | 557 kts | 74° |
| 2026-05-07 17:47 | 47.77858 | 12.39729 | 33003 ft | 552 kts | 74° |
| 2026-05-07 17:47 | 47.79848 | 12.50761 | 33006 ft | 553 kts | 74° |
| 2026-05-07 17:48 | 47.81830 | 12.61812 | 33005 ft | 553 kts | 75° |
| 2026-05-07 17:48 | 47.83470 | 12.71008 | 33003 ft | 553 kts | 75° |
| 2026-05-07 17:49 | 47.86071 | 12.81760 | 33014 ft | 554 kts | 67° |
| 2026-05-07 17:49 | 47.88886 | 12.92441 | 33015 ft | 554 kts | 68° |
| 2026-05-07 17:50 | 47.91722 | 13.03115 | 33014 ft | 553 kts | 68° |
| 2026-05-07 17:50 | 47.94519 | 13.13763 | 33013 ft | 552 kts | 68° |
| 2026-05-07 17:51 | 47.97316 | 13.24426 | 33013 ft | 552 kts | 68° |
| 2026-05-07 17:51 | 48.00107 | 13.35125 | 33005 ft | 554 kts | 69° |
| 2026-05-07 17:52 | 48.02891 | 13.45853 | 33010 ft | 554 kts | 68° |
| 2026-05-07 17:52 | 48.05666 | 13.56584 | 33011 ft | 554 kts | 69° |
| 2026-05-07 17:53 | 48.08428 | 13.67328 | 33012 ft | 554 kts | 69° |
| 2026-05-07 17:53 | 48.11184 | 13.78088 | 33011 ft | 554 kts | 69° |
| 2026-05-07 17:54 | 48.13936 | 13.88894 | 33018 ft | 556 kts | 69° |
| 2026-05-07 17:54 | 48.16663 | 13.99644 | 33016 ft | 556 kts | 69° |
| 2026-05-07 17:55 | 48.19397 | 14.10477 | 33001 ft | 556 kts | 69° |
| 2026-05-07 17:55 | 48.22116 | 14.21303 | 33002 ft | 554 kts | 69° |
| 2026-05-07 17:56 | 48.23466 | 14.26698 | 32821 ft | 543 kts | 70° |
| 2026-05-07 17:56 | 48.24758 | 14.31872 | 32106 ft | 517 kts | 70° |
| 2026-05-07 17:56 | 48.25989 | 14.36811 | 31443 ft | 497 kts | 70° |
| 2026-05-07 17:56 | 48.27184 | 14.41620 | 30801 ft | 489 kts | 71° |
| 2026-05-07 17:57 | 48.28374 | 14.46419 | 30159 ft | 489 kts | 71° |
| 2026-05-07 17:57 | 48.29154 | 14.49570 | 29693 ft | 484 kts | 71° |
| 2026-05-07 17:57 | 48.30710 | 14.55866 | 28840 ft | 478 kts | 71° |
| 2026-05-07 17:57 | 48.31860 | 14.60532 | 28213 ft | 474 kts | 71° |
| 2026-05-07 17:58 | 48.32997 | 14.65156 | 27589 ft | 469 kts | 70° |
| 2026-05-07 17:58 | 48.34122 | 14.69738 | 26976 ft | 465 kts | 70° |
| 2026-05-07 17:58 | 48.35234 | 14.74277 | 26359 ft | 461 kts | 70° |
| 2026-05-07 17:58 | 48.36338 | 14.78793 | 25745 ft | 458 kts | 71° |
| 2026-05-07 17:59 | 48.37429 | 14.83265 | 25155 ft | 453 kts | 71° |
| 2026-05-07 17:59 | 48.38508 | 14.87695 | 24552 ft | 449 kts | 71° |
| 2026-05-07 17:59 | 48.39577 | 14.92095 | 23959 ft | 446 kts | 71° |
| 2026-05-07 17:59 | 48.40635 | 14.96457 | 23340 ft | 442 kts | 71° |
| 2026-05-07 18:00 | 48.41681 | 15.00778 | 22752 ft | 437 kts | 71° |
| 2026-05-07 18:00 | 48.42715 | 15.05065 | 22173 ft | 434 kts | 71° |
| 2026-05-07 18:00 | 48.43739 | 15.09313 | 21612 ft | 430 kts | 70° |
| 2026-05-07 18:00 | 48.44755 | 15.13526 | 21041 ft | 426 kts | 70° |
| 2026-05-07 18:01 | 48.45758 | 15.17703 | 20484 ft | 422 kts | 70° |
| 2026-05-07 18:01 | 48.46737 | 15.21790 | 19930 ft | 419 kts | 70° |
| 2026-05-07 18:01 | 48.47719 | 15.25896 | 19381 ft | 415 kts | 70° |
| 2026-05-07 18:01 | 48.48692 | 15.29968 | 18837 ft | 412 kts | 70° |
| 2026-05-07 18:02 | 48.50612 | 15.38029 | 17719 ft | 405 kts | 70° |
| 2026-05-07 18:02 | 48.51517 | 15.42050 | 17148 ft | 411 kts | 75° |
| 2026-05-07 18:02 | 48.51663 | 15.46420 | 16951 ft | 419 kts | 96° |
| 2026-05-07 18:03 | 48.51335 | 15.50747 | 16709 ft | 403 kts | 98° |
| 2026-05-07 18:03 | 48.50981 | 15.54864 | 16210 ft | 392 kts | 98° |
| 2026-05-07 18:03 | 48.50677 | 15.58948 | 15692 ft | 391 kts | 97° |
| 2026-05-07 18:03 | 48.50403 | 15.63010 | 15182 ft | 388 kts | 97° |
| 2026-05-07 18:04 | 48.50107 | 15.67036 | 14607 ft | 386 kts | 98° |
| 2026-05-07 18:04 | 48.49793 | 15.71013 | 14177 ft | 382 kts | 98° |
| 2026-05-07 18:04 | 48.49490 | 15.74983 | 13659 ft | 380 kts | 97° |
| 2026-05-07 18:04 | 48.49200 | 15.78925 | 13150 ft | 377 kts | 97° |
| 2026-05-07 18:05 | 48.48904 | 15.82833 | 12665 ft | 374 kts | 97° |
| 2026-05-07 18:05 | 48.48603 | 15.86715 | 12171 ft | 371 kts | 97° |
| 2026-05-07 18:05 | 48.48306 | 15.90560 | 11685 ft | 368 kts | 97° |
| 2026-05-07 18:05 | 48.48013 | 15.94375 | 11209 ft | 361 kts | 97° |
| 2026-05-07 18:06 | 48.47730 | 15.98014 | 10745 ft | 338 kts | 97° |
| 2026-05-07 18:06 | 48.47462 | 16.01449 | 10303 ft | 320 kts | 97° |
| 2026-05-07 18:06 | 48.47208 | 16.04698 | 9937 ft | 306 kts | 97° |
| 2026-05-07 18:06 | 48.46961 | 16.07855 | 9525 ft | 301 kts | 97° |
| 2026-05-07 18:07 | 48.46716 | 16.10964 | 9139 ft | 297 kts | 97° |
| 2026-05-07 18:07 | 48.46472 | 16.14043 | 8756 ft | 295 kts | 97° |
| 2026-05-07 18:07 | 48.46230 | 16.17103 | 8360 ft | 293 kts | 97° |
| 2026-05-07 18:07 | 48.45988 | 16.20150 | 7980 ft | 292 kts | 97° |
| 2026-05-07 18:08 | 48.45746 | 16.23176 | 7597 ft | 291 kts | 97° |
| 2026-05-07 18:08 | 48.45505 | 16.26191 | 7220 ft | 288 kts | 97° |
| 2026-05-07 18:08 | 48.45273 | 16.29078 | 6839 ft | 267 kts | 97° |
| 2026-05-07 18:08 | 48.45054 | 16.31786 | 6500 ft | 256 kts | 96° |
| 2026-05-07 18:09 | 48.44841 | 16.34428 | 6133 ft | 252 kts | 97° |
| 2026-05-07 18:09 | 48.44630 | 16.37034 | 5824 ft | 250 kts | 97° |
| 2026-05-07 18:09 | 48.44421 | 16.39602 | 5499 ft | 250 kts | 96° |
| 2026-05-07 18:09 | 48.44120 | 16.42173 | 5132 ft | 249 kts | 109° |
| 2026-05-07 18:10 | 48.43102 | 16.44215 | 4796 ft | 241 kts | 145° |
| 2026-05-07 18:10 | 48.41589 | 16.45227 | 4872 ft | 238 kts | 166° |
| 2026-05-07 18:10 | 48.39980 | 16.45885 | 5000 ft | 241 kts | 168° |
| 2026-05-07 18:10 | 48.38363 | 16.46566 | 5006 ft | 241 kts | 167° |
| 2026-05-07 18:11 | 48.36812 | 16.47232 | 5005 ft | 229 kts | 167° |
| 2026-05-07 18:11 | 48.35769 | 16.47677 | 5000 ft | 230 kts | 167° |
| 2026-05-07 18:11 | 48.33726 | 16.48550 | 4976 ft | 231 kts | 167° |
| 2026-05-07 18:11 | 48.32169 | 16.49214 | 4697 ft | 233 kts | 167° |
| 2026-05-07 18:12 | 48.30612 | 16.49876 | 4380 ft | 232 kts | 167° |
| 2026-05-07 18:12 | 48.29075 | 16.50531 | 4070 ft | 227 kts | 167° |
| 2026-05-07 18:12 | 48.27566 | 16.51173 | 3771 ft | 223 kts | 165° |
| 2026-05-07 18:12 | 48.26128 | 16.51796 | 3477 ft | 206 kts | 165° |
| 2026-05-07 18:13 | 48.24806 | 16.52362 | 3212 ft | 190 kts | 165° |
| 2026-05-07 18:13 | 48.23568 | 16.52889 | 2964 ft | 181 kts | 165° |
| 2026-05-07 18:13 | 48.22376 | 16.53396 | 2735 ft | 176 kts | 166° |
| 2026-05-07 18:13 | 48.21208 | 16.53893 | 2502 ft | 174 kts | 165° |
| 2026-05-07 18:14 | 48.20060 | 16.54380 | 2269 ft | 167 kts | 166° |
| 2026-05-07 18:14 | 48.18973 | 16.54843 | 2058 ft | 159 kts | 166° |
| 2026-05-07 18:14 | 48.17933 | 16.55285 | 1844 ft | 152 kts | 166° |
| 2026-05-07 18:14 | 48.16927 | 16.55712 | 1638 ft | 148 kts | 166° |
| 2026-05-07 18:15 | 48.15979 | 16.56117 | 1432 ft | 134 kts | 166° |
| 2026-05-07 18:15 | 48.15114 | 16.56484 | 1260 ft | 126 kts | 167° |
| 2026-05-07 18:15 | 48.14287 | 16.56834 | 1097 ft | 122 kts | 168° |
| 2026-05-07 18:15 | 48.13478 | 16.57182 | 935 ft | 120 kts | 169° |
| 2026-05-07 18:16 | 48.12685 | 16.57523 | 783 ft | 118 kts | 170° |
| 2026-05-07 18:16 | 48.11898 | 16.57865 | 643 ft | 117 kts | 171° |
| 2026-05-07 18:16 | 48.11154 | 16.58162 | 618 ft | 103 kts | 165° |
| 2026-05-07 18:16 | 48.10613 | 16.58396 | 609 ft | 58 kts | 165° |
| 2026-05-07 18:17 | 48.10318 | 16.58458 | 605 ft | 35 kts | 185° |
| 2026-05-07 18:17 | 48.10154 | 16.58406 | 605 ft | 14 kts | 207° |
| 2026-05-07 18:17 | 48.10132 | 16.58348 | 605 ft | 5 kts | 270° |
| 2026-05-07 18:17 | 48.10155 | 16.58309 | 605 ft | 9 kts | 338° |
| 2026-05-07 18:18 | 48.10235 | 16.58274 | 613 ft | 13 kts | 344° |
| 2026-05-07 18:18 | 48.10323 | 16.58237 | 610 ft | 13 kts | 343° |
| 2026-05-07 18:18 | 48.10411 | 16.58201 | 610 ft | 13 kts | 345° |
| 2026-05-07 18:18 | 48.10502 | 16.58162 | 608 ft | 17 kts | 345° |
| 2026-05-07 18:19 | 48.10621 | 16.58111 | 606 ft | 18 kts | 344° |
| 2026-05-07 18:19 | 48.10750 | 16.58058 | 605 ft | 21 kts | 343° |
| 2026-05-07 18:19 | 48.10885 | 16.58001 | 605 ft | 18 kts | 345° |
| 2026-05-07 18:19 | 48.10981 | 16.57903 | 609 ft | 16 kts | 313° |
| 2026-05-07 18:20 | 48.11047 | 16.57771 | 611 ft | 16 kts | 295° |
| 2026-05-07 18:20 | 48.11099 | 16.57613 | 612 ft | 18 kts | 296° |
| 2026-05-07 18:20 | 48.11152 | 16.57450 | 608 ft | 17 kts | 295° |
| 2026-05-07 18:20 | 48.11203 | 16.57290 | 608 ft | 18 kts | 295° |
| 2026-05-07 18:21 | 48.11263 | 16.57106 | 610 ft | 22 kts | 297° |
| 2026-05-07 18:21 | 48.11328 | 16.56906 | 611 ft | 21 kts | 296° |
| 2026-05-07 18:21 | 48.11389 | 16.56716 | 615 ft | 20 kts | 295° |
| 2026-05-07 18:21 | 48.11449 | 16.56534 | 609 ft | 22 kts | 296° |
| 2026-05-07 18:22 | 48.11518 | 16.56326 | 616 ft | 22 kts | 296° |
| 2026-05-07 18:22 | 48.11561 | 16.56193 | 613 ft | 21 kts | 296° |
| 2026-05-07 18:22 | 48.11642 | 16.55941 | 605 ft | 20 kts | 296° |
| 2026-05-07 18:22 | 48.11703 | 16.55754 | 612 ft | 19 kts | 296° |
| 2026-05-07 18:23 | 48.11761 | 16.55578 | 612 ft | 18 kts | 296° |
| 2026-05-07 18:23 | 48.11815 | 16.55412 | 609 ft | 17 kts | 296° |
| 2026-05-07 18:23 | 48.11865 | 16.55256 | 615 ft | 16 kts | 296° |
| 2026-05-07 18:23 | 48.11912 | 16.55110 | 608 ft | 15 kts | 296° |
| 2026-05-07 18:24 | 48.11973 | 16.54926 | 605 ft | 20 kts | 296° |
| 2026-05-07 18:24 | 48.12032 | 16.54746 | 605 ft | 19 kts | 296° |
| 2026-05-07 18:24 | 48.12091 | 16.54564 | 605 ft | 21 kts | 296° |
| 2026-05-07 18:24 | 48.12152 | 16.54377 | 611 ft | 19 kts | 296° |
| 2026-05-07 18:25 | 48.12209 | 16.54203 | 612 ft | 18 kts | 296° |
| 2026-05-07 18:25 | 48.12262 | 16.54041 | 607 ft | 17 kts | 296° |
| 2026-05-07 18:25 | 48.12310 | 16.53886 | 616 ft | 16 kts | 295° |
| 2026-05-07 18:25 | 48.12357 | 16.53743 | 608 ft | 15 kts | 298° |
| 2026-05-07 18:26 | 48.12405 | 16.53631 | 605 ft | 10 kts | 334° |
| 2026-05-07 18:26 | 48.12472 | 16.53630 | 605 ft | 11 kts | 354° |
| 2026-05-07 18:26 | 48.12538 | 16.53651 | 613 ft | 9 kts | 27° |
| 2026-05-07 18:26 | 48.12594 | 16.53689 | 616 ft | 9 kts | 25° |
| 2026-05-07 18:27 | 48.12638 | 16.53667 | 610 ft | 8 kts | 303° |
| 2026-05-07 18:27 | 48.12679 | 16.53666 | 605 ft | 7 kts | 26° |
| 2026-05-07 18:27 | 48.12710 | 16.53635 | 605 ft | 5 kts | 295° |
| 2026-05-07 18:27 | 48.12716 | 16.53617 | 612 ft | 0 kts | 295° |